Time;durP1;ratioP1;P1;durP2;ratioP2;P2;SDS_P1;SDS_P2;PMS_P1;PMS_P2;Temp;Humidity;BMP_temperature;BMP_pressure;BME280_temperature;BME280_humidity;BME280_pressure;Samples;Min_cycle;Max_cycle;Signal;HPM_P1;HPM_P2
2021/07/04 00:00:57;;;;;;;16.02;8.40;;;18.40;99.90;;;;;;5059823;28;20025;-70
2021/07/04 00:03:23;;;;;;;17.23;7.43;;;18.30;99.90;;;;;;5064139;28;20028;-70
2021/07/04 00:05:50;;;;;;;17.33;8.20;;;18.30;99.90;;;;;;5083168;28;20038;-70
2021/07/04 00:08:22;;;;;;;16.35;8.82;;;18.20;99.90;;;;;;5083512;28;20036;-70
2021/07/04 00:11:00;;;;;;;18.23;8.38;;;18.10;99.90;;;;;;5063877;28;20035;-70
2021/07/04 00:13:27;;;;;;;20.95;9.30;;;18.10;99.90;;;;;;5062101;28;20032;-70
2021/07/04 00:15:53;;;;;;;15.07;7.72;;;18.10;99.90;;;;;;5064456;28;20077;-70
2021/07/04 00:18:25;;;;;;;19.88;8.82;;;18.10;99.90;;;;;;5081960;28;20107;-70
2021/07/04 00:20:52;;;;;;;17.90;10.18;;;18.00;99.90;;;;;;5057005;28;20036;-70
2021/07/04 00:23:19;;;;;;;17.48;9.57;;;18.10;99.90;;;;;;5060553;28;20484;-70
2021/07/04 00:25:46;;;;;;;17.73;9.45;;;18.00;99.90;;;;;;5076828;28;20032;-70
2021/07/04 00:28:12;;;;;;;18.90;9.73;;;18.00;99.90;;;;;;5060034;28;20028;-70
2021/07/04 00:30:38;;;;;;;18.45;9.20;;;18.00;99.90;;;;;;5080942;28;20712;-70
2021/07/04 00:33:05;;;;;;;19.13;9.85;;;18.10;99.90;;;;;;5065041;28;20028;-70
2021/07/04 00:35:31;;;;;;;13.52;8.27;;;18.00;99.90;;;;;;5060752;28;20167;-70
2021/07/04 00:37:57;;;;;;;23.13;9.68;;;18.00;99.90;;;;;;5082140;28;20132;-70
2021/07/04 00:40:24;;;;;;;17.08;9.27;;;17.90;99.90;;;;;;5058108;28;20037;-70
2021/07/04 00:42:49;;;;;;;20.08;9.77;;;18.00;99.90;;;;;;5069921;28;20480;-70
2021/07/04 00:45:21;;;;;;;19.83;9.75;;;18.00;99.90;;;;;;5068380;28;20036;-70
2021/07/04 00:47:48;;;;;;;18.73;9.23;;;18.00;99.90;;;;;;5078437;28;20029;-70
2021/07/04 00:50:15;;;;;;;17.05;9.02;;;17.90;99.90;;;;;;5050724;28;20111;-70
2021/07/04 00:52:42;;;;;;;19.77;9.57;;;17.90;99.90;;;;;;5063496;28;20031;-70
2021/07/04 00:55:08;;;;;;;18.73;9.23;;;18.00;99.90;;;;;;5066969;28;20056;-70
2021/07/04 00:57:34;;;;;;;20.85;9.90;;;17.90;99.90;;;;;;5079301;28;20028;-70
2021/07/04 01:00:00;;;;;;;23.02;10.32;;;18.00;99.90;;;;;;5081066;28;20105;-70
2021/07/04 01:02:27;;;;;;;18.88;9.73;;;17.90;99.90;;;;;;5055268;28;20028;-70
2021/07/04 01:04:54;;;;;;;18.65;9.57;;;18.00;99.90;;;;;;5073256;28;20074;-70
2021/07/04 01:07:20;;;;;;;16.42;9.10;;;17.90;99.90;;;;;;5051371;28;20094;-70
2021/07/04 01:09:46;;;;;;;16.17;8.88;;;17.90;99.90;;;;;;5077508;28;20391;-70
2021/07/04 01:12:12;;;;;;;18.70;9.55;;;17.90;99.90;;;;;;5063839;28;20036;-70
2021/07/04 01:14:37;;;;;;;14.90;8.50;;;17.90;99.90;;;;;;5061189;28;20120;-70
2021/07/04 01:17:03;;;;;;;16.55;8.93;;;17.90;99.90;;;;;;5058204;28;20123;-70
2021/07/04 01:19:29;;;;;;;19.20;9.10;;;17.90;99.90;;;;;;5078849;28;20642;-70
2021/07/04 01:21:56;;;;;;;19.35;8.85;;;17.80;99.90;;;;;;5080921;28;20055;-70
2021/07/04 01:24:23;;;;;;;16.27;8.77;;;17.80;99.90;;;;;;5077586;28;20055;-70
2021/07/04 01:26:50;;;;;;;16.67;8.90;;;17.80;99.90;;;;;;5065411;28;20392;-70
2021/07/04 01:29:17;;;;;;;17.85;9.73;;;17.80;99.90;;;;;;5059264;28;20068;-70
2021/07/04 01:31:42;;;;;;;15.63;8.77;;;17.80;99.90;;;;;;5073530;28;20044;-70
2021/07/04 01:34:08;;;;;;;18.08;9.15;;;17.70;99.90;;;;;;5075827;28;20514;-70
2021/07/04 01:36:35;;;;;;;16.88;9.15;;;17.70;99.90;;;;;;5074723;28;20040;-70
2021/07/04 01:39:01;;;;;;;18.63;9.20;;;17.70;99.90;;;;;;5078338;28;20122;-70
2021/07/04 01:41:27;;;;;;;15.52;8.80;;;17.60;99.90;;;;;;5061554;28;20040;-70
2021/07/04 01:43:53;;;;;;;16.98;8.93;;;17.70;99.90;;;;;;5064018;28;20044;-70
2021/07/04 01:46:21;;;;;;;20.05;8.82;;;17.70;99.90;;;;;;5081013;28;20032;-70
2021/07/04 01:48:47;;;;;;;14.43;8.35;;;17.70;99.90;;;;;;5064273;28;20063;-70
2021/07/04 01:51:12;;;;;;;19.27;8.88;;;17.70;99.90;;;;;;5061958;28;20446;-70
2021/07/04 01:53:38;;;;;;;15.00;8.82;;;17.70;99.90;;;;;;5081774;28;20431;-70
2021/07/04 01:56:06;;;;;;;18.20;9.02;;;17.70;99.90;;;;;;5063100;28;20044;-70
2021/07/04 01:58:32;;;;;;;16.45;9.15;;;17.60;99.90;;;;;;5067115;28;20400;-70
2021/07/04 02:00:58;;;;;;;14.43;8.45;;;17.60;99.90;;;;;;5064337;28;20039;-70
2021/07/04 02:03:23;;;;;;;17.67;8.98;;;17.60;99.90;;;;;;5066894;28;20054;-70
2021/07/04 02:05:49;;;;;;;17.80;9.35;;;17.60;99.90;;;;;;5087988;28;20035;-70
2021/07/04 02:08:15;;;;;;;15.35;8.73;;;17.60;99.90;;;;;;5080026;28;20040;-69
2021/07/04 02:10:41;;;;;;;16.38;9.10;;;17.60;99.90;;;;;;5078856;28;20044;-70
2021/07/04 02:13:09;;;;;;;18.30;9.25;;;17.60;99.90;;;;;;5082232;28;20107;-71
2021/07/04 02:15:38;;;;;;;16.70;8.57;;;17.60;99.90;;;;;;5081869;28;20063;-70
2021/07/04 02:18:06;;;;;;;14.27;8.50;;;17.50;99.90;;;;;;5082143;28;20028;-70
2021/07/04 02:20:42;;;;;;;13.50;8.00;;;17.60;99.90;;;;;;5064234;28;20032;-70
2021/07/04 02:23:09;;;;;;;14.18;8.07;;;17.60;99.90;;;;;;5081773;28;20141;-70
2021/07/04 02:25:36;;;;;;;15.70;8.25;;;17.70;99.90;;;;;;5084147;28;20028;-69
2021/07/04 02:28:03;;;;;;;18.25;8.98;;;17.60;99.90;;;;;;5080752;28;20062;-70
2021/07/04 02:30:29;;;;;;;14.77;7.70;;;17.70;99.90;;;;;;5081843;28;20040;-70
2021/07/04 02:32:55;;;;;;;13.20;8.20;;;17.70;99.90;;;;;;5065255;28;20051;-70
2021/07/04 02:35:21;;;;;;;13.63;7.97;;;17.70;99.90;;;;;;5062576;28;20221;-70
2021/07/04 02:37:47;;;;;;;12.10;7.50;;;17.70;99.90;;;;;;5062066;28;20029;-70
2021/07/04 02:40:13;;;;;;;12.55;8.25;;;17.70;99.90;;;;;;5088216;28;20035;-70
2021/07/04 02:42:40;;;;;;;13.15;7.80;;;17.70;99.90;;;;;;5065518;28;20108;-70
2021/07/04 02:45:08;;;;;;;18.77;9.65;;;17.70;99.90;;;;;;5084312;28;20071;-70
2021/07/04 02:47:33;;;;;;;15.57;8.35;;;17.80;99.90;;;;;;5082350;28;20028;-71
2021/07/04 02:49:59;;;;;;;15.02;8.30;;;17.80;99.90;;;;;;5064607;28;20028;-70
2021/07/04 02:52:25;;;;;;;16.23;8.50;;;17.80;99.90;;;;;;5085046;28;20063;-70
2021/07/04 02:54:50;;;;;;;17.98;8.65;;;17.80;99.90;;;;;;5083664;28;20545;-70
2021/07/04 02:57:16;;;;;;;14.60;8.90;;;17.80;99.90;;;;;;5062019;28;20033;-70
2021/07/04 02:59:41;;;;;;;16.50;9.05;;;17.80;99.90;;;;;;5083189;28;20039;-70
2021/07/04 03:02:07;;;;;;;14.23;8.05;;;17.90;99.90;;;;;;5080835;28;20044;-70
2021/07/04 03:04:33;;;;;;;16.80;8.73;;;17.80;99.90;;;;;;5084182;28;20085;-70
2021/07/04 03:07:00;;;;;;;16.50;9.45;;;17.80;99.90;;;;;;5081161;28;20032;-70
2021/07/04 03:09:27;;;;;;;14.43;8.20;;;17.70;99.90;;;;;;5064028;28;20496;-70
2021/07/04 03:11:55;;;;;;;15.75;9.05;;;17.70;99.90;;;;;;5066431;28;20063;-70
2021/07/04 03:14:21;;;;;;;19.95;9.77;;;17.60;99.90;;;;;;5061051;28;20028;-70
2021/07/04 03:16:47;;;;;;;18.85;9.98;;;17.50;99.90;;;;;;5064368;28;20028;-70
2021/07/04 03:19:12;;;;;;;20.35;10.43;;;17.50;99.90;;;;;;5061152;28;20036;-70
2021/07/04 03:21:38;;;;;;;24.38;11.18;;;17.40;99.90;;;;;;5060805;28;20028;-70
2021/07/04 03:24:04;;;;;;;23.58;11.20;;;17.40;99.90;;;;;;5080014;28;20055;-70
2021/07/04 03:26:29;;;;;;;21.40;11.30;;;17.40;99.90;;;;;;5063045;28;20440;-70
2021/07/04 03:28:55;;;;;;;29.08;12.15;;;17.30;99.90;;;;;;5077976;28;20488;-70
2021/07/04 03:31:20;;;;;;;29.45;12.55;;;17.30;99.90;;;;;;5063940;28;20123;-69
2021/07/04 03:33:46;;;;;;;29.77;13.10;;;17.20;99.90;;;;;;5082741;28;20025;-71
2021/07/04 03:36:11;;;;;;;30.58;13.63;;;17.20;99.90;;;;;;5078889;28;20036;-70
2021/07/04 03:38:37;;;;;;;26.20;12.48;;;17.10;99.90;;;;;;5067797;28;20593;-70
2021/07/04 03:41:02;;;;;;;37.70;13.93;;;17.10;99.90;;;;;;5058038;28;20101;-70
2021/07/04 03:43:28;;;;;;;34.00;14.50;;;17.00;99.90;;;;;;5077641;28;20059;-70
2021/07/04 03:45:54;;;;;;;35.20;15.15;;;17.00;99.90;;;;;;5058963;28;20106;-70
2021/07/04 03:48:19;;;;;;;40.55;15.38;;;17.00;99.90;;;;;;5067768;28;20032;-70
2021/07/04 03:50:45;;;;;;;36.53;15.63;;;16.90;99.90;;;;;;5064009;28;20044;-73
2021/07/04 03:53:11;;;;;;;40.58;17.10;;;16.90;99.90;;;;;;5056117;28;20036;-70
2021/07/04 03:55:37;;;;;;;38.78;16.55;;;16.90;99.90;;;;;;5059696;28;20050;-70
2021/07/04 03:58:03;;;;;;;38.33;16.40;;;17.00;99.90;;;;;;5056212;28;20483;-69
2021/07/04 04:00:29;;;;;;;49.45;16.42;;;16.90;99.90;;;;;;5078272;28;20064;-70
2021/07/04 04:02:54;;;;;;;41.13;18.50;;;17.00;99.90;;;;;;5063486;28;20059;-70
2021/07/04 04:05:20;;;;;;;43.03;17.27;;;17.00;99.90;;;;;;5064117;28;20043;-70
2021/07/04 04:07:46;;;;;;;41.78;16.83;;;17.10;99.90;;;;;;5078243;28;20023;-70
2021/07/04 04:10:13;;;;;;;37.28;17.13;;;17.10;99.90;;;;;;5081459;28;20081;-70
2021/07/04 04:12:39;;;;;;;49.08;18.08;;;17.20;99.90;;;;;;5073879;28;20040;-70
2021/07/04 04:15:06;;;;;;;45.35;17.77;;;17.20;99.90;;;;;;5059110;28;20082;-70
2021/07/04 04:17:32;;;;;;;36.47;16.02;;;17.20;99.90;;;;;;5081110;28;20048;-70
2021/07/04 04:19:58;;;;;;;40.38;17.60;;;17.30;99.90;;;;;;5079040;28;20032;-70
2021/07/04 04:22:23;;;;;;;42.50;16.55;;;17.30;99.90;;;;;;5057583;28;20048;-70
2021/07/04 04:24:49;;;;;;;43.72;17.80;;;17.40;99.90;;;;;;5081734;28;20047;-70
2021/07/04 04:27:15;;;;;;;40.65;16.38;;;17.40;99.90;;;;;;5080453;28;20031;-70
2021/07/04 04:29:41;;;;;;;41.08;16.02;;;17.40;99.90;;;;;;5059997;28;20028;-70
2021/07/04 04:32:07;;;;;;;37.13;15.48;;;17.40;99.90;;;;;;5077300;28;20048;-70
2021/07/04 04:34:32;;;;;;;35.63;15.77;;;17.40;99.90;;;;;;5073691;28;20029;-70
2021/07/04 04:37:02;;;;;;;35.08;15.93;;;17.50;99.90;;;;;;5077644;28;20035;-70
2021/07/04 04:39:27;;;;;;;32.43;15.57;;;17.50;99.90;;;;;;5058836;28;20032;-70
2021/07/04 04:41:53;;;;;;;37.00;16.70;;;17.60;99.90;;;;;;5079431;28;20035;-72
2021/07/04 04:44:19;;;;;;;37.67;16.70;;;17.60;99.90;;;;;;5058140;28;20032;-70
2021/07/04 04:46:44;;;;;;;36.78;16.55;;;17.60;99.90;;;;;;5074075;28;20150;-70
2021/07/04 04:49:11;;;;;;;37.65;15.98;;;17.70;99.90;;;;;;5062882;28;20114;-71
2021/07/04 04:51:40;;;;;;;35.08;16.00;;;17.80;99.90;;;;;;5074257;28;20032;-70
2021/07/04 04:54:07;;;;;;;30.67;14.48;;;17.90;99.90;;;;;;5069404;28;20039;-70
2021/07/04 04:56:34;;;;;;;40.47;15.25;;;17.90;99.90;;;;;;5080849;28;20035;-70
2021/07/04 04:59:00;;;;;;;34.70;15.23;;;18.00;99.90;;;;;;5078227;28;20404;-70
2021/07/04 05:01:27;;;;;;;32.22;14.48;;;18.00;99.90;;;;;;5080343;28;20035;-70
2021/07/04 05:03:53;;;;;;;37.03;16.05;;;18.00;99.90;;;;;;5078316;28;20043;-70
2021/07/04 05:06:19;;;;;;;34.80;15.65;;;18.00;99.90;;;;;;5063729;28;20028;-70
2021/07/04 05:08:44;;;;;;;44.08;17.20;;;18.00;99.90;;;;;;5077680;28;20043;-70
2021/07/04 05:11:11;;;;;;;38.17;17.33;;;18.00;99.90;;;;;;5073416;28;20071;-70
2021/07/04 05:13:37;;;;;;;38.30;16.70;;;18.00;99.90;;;;;;5076320;28;20032;-70
2021/07/04 05:16:04;;;;;;;44.17;17.92;;;17.90;99.90;;;;;;5080307;28;20055;-70
2021/07/04 05:18:30;;;;;;;39.72;17.40;;;18.00;99.90;;;;;;5063095;28;20028;-70
2021/07/04 05:20:55;;;;;;;35.17;16.48;;;18.00;99.90;;;;;;5079100;28;20130;-70
2021/07/04 05:23:21;;;;;;;34.65;16.13;;;18.10;99.90;;;;;;5059261;28;20032;-70
2021/07/04 05:25:49;;;;;;;37.45;17.35;;;18.10;99.90;;;;;;5082965;28;20468;-70
2021/07/04 05:28:14;;;;;;;40.17;17.85;;;18.20;99.90;;;;;;5082012;28;20021;-70
2021/07/04 05:30:40;;;;;;;33.72;15.88;;;18.30;99.90;;;;;;5062272;28;20056;-70
2021/07/04 05:33:05;;;;;;;35.67;16.40;;;18.30;99.90;;;;;;5067101;28;20028;-70
2021/07/04 05:35:31;;;;;;;38.00;16.83;;;18.40;99.90;;;;;;5062663;28;20024;-70
2021/07/04 05:37:57;;;;;;;31.65;15.32;;;18.40;99.90;;;;;;5083959;28;20028;-70
2021/07/04 05:40:23;;;;;;;33.67;16.55;;;18.40;99.90;;;;;;5079317;28;20031;-70
2021/07/04 05:42:48;;;;;;;43.17;17.48;;;18.40;99.90;;;;;;5064792;28;20044;-70
2021/07/04 05:45:25;;;;;;;37.70;16.02;;;18.50;99.90;;;;;;5083618;28;20034;-70
2021/07/04 05:47:52;;;;;;;33.15;15.25;;;18.50;99.90;;;;;;5059385;28;20033;-70
2021/07/04 05:50:18;;;;;;;36.55;16.90;;;18.50;99.90;;;;;;5062473;28;20037;-70
2021/07/04 05:52:45;;;;;;;36.95;16.63;;;18.50;99.90;;;;;;5081320;28;20300;-70
2021/07/04 05:55:12;;;;;;;34.55;16.67;;;18.40;99.90;;;;;;5062306;28;20165;-70
2021/07/04 05:57:37;;;;;;;34.47;15.43;;;18.40;99.90;;;;;;5072789;28;20060;-70
2021/07/04 06:00:06;;;;;;;33.28;15.48;;;18.40;99.90;;;;;;5081392;28;20060;-70
2021/07/04 06:02:31;;;;;;;32.60;14.93;;;18.40;99.90;;;;;;5084022;28;20044;-70
2021/07/04 06:04:57;;;;;;;32.10;15.45;;;18.40;99.90;;;;;;5064959;28;20028;-70
2021/07/04 06:07:23;;;;;;;29.08;13.63;;;18.50;99.90;;;;;;5083510;28;20691;-70
2021/07/04 06:09:48;;;;;;;30.40;14.07;;;18.40;99.90;;;;;;5064486;28;20115;-70
2021/07/04 06:12:14;;;;;;;30.40;14.65;;;18.40;99.90;;;;;;5081491;28;20401;-70
2021/07/04 06:14:39;;;;;;;32.30;14.38;;;18.50;99.90;;;;;;5066250;28;20040;-70
2021/07/04 06:17:05;;;;;;;32.10;14.93;;;18.50;99.90;;;;;;5083655;28;20055;-70
2021/07/04 06:19:31;;;;;;;33.15;15.25;;;18.60;99.90;;;;;;5079758;28;20082;-70
2021/07/04 06:21:56;;;;;;;27.83;14.65;;;18.80;99.90;;;;;;5080048;28;20032;-70
2021/07/04 06:24:22;;;;;;;28.85;13.68;;;19.10;99.90;;;;;;5061646;28;20040;-70
2021/07/04 06:26:48;;;;;;;29.15;13.70;;;19.50;99.90;;;;;;5083964;28;20043;-70
2021/07/04 06:29:14;;;;;;;27.33;14.00;;;19.90;99.90;;;;;;5079577;28;20037;-71
2021/07/04 06:31:40;;;;;;;25.15;13.15;;;20.10;99.90;;;;;;5061384;28;20047;-70
2021/07/04 06:34:05;;;;;;;26.52;13.15;;;20.50;99.90;;;;;;5085178;28;20479;-70
2021/07/04 06:36:31;;;;;;;22.77;12.45;;;20.90;99.90;;;;;;5079247;28;20047;-70
2021/07/04 06:38:57;;;;;;;22.77;12.48;;;21.10;99.90;;;;;;5062292;28;20044;-70
2021/07/04 06:41:23;;;;;;;19.67;11.38;;;21.40;99.90;;;;;;5082548;28;20032;-70
2021/07/04 06:43:49;;;;;;;16.48;10.32;;;21.70;99.90;;;;;;5064656;28;20034;-70
2021/07/04 06:46:14;;;;;;;16.58;10.18;;;21.90;99.90;;;;;;5081779;28;20132;-70
2021/07/04 06:48:40;;;;;;;16.90;9.73;;;22.30;99.90;;;;;;5082738;28;20032;-70
2021/07/04 06:51:06;;;;;;;16.48;9.13;;;22.70;99.90;;;;;;5083816;28;20035;-70
2021/07/04 06:53:32;;;;;;;14.32;8.77;;;23.00;99.90;;;;;;5062165;28;20116;-70
2021/07/04 06:55:58;;;;;;;20.23;10.50;;;23.00;99.90;;;;;;5065677;28;20051;-70
2021/07/04 06:58:23;;;;;;;14.48;9.23;;;22.70;99.90;;;;;;5083401;28;20078;-70
2021/07/04 07:00:49;;;;;;;15.50;9.82;;;22.50;99.90;;;;;;5079568;28;20082;-70
2021/07/04 07:03:14;;;;;;;14.85;9.57;;;22.30;99.90;;;;;;5083334;28;20040;-70
2021/07/04 07:05:40;;;;;;;14.98;8.88;;;22.10;99.90;;;;;;5081872;28;20032;-70
2021/07/04 07:08:06;;;;;;;15.38;8.82;;;21.90;99.90;;;;;;5063157;28;20032;-70
2021/07/04 07:10:31;;;;;;;14.85;9.77;;;21.80;99.90;;;;;;5090644;28;20032;-69
2021/07/04 07:12:58;;;;;;;15.32;8.80;;;22.40;99.90;;;;;;5077327;28;20024;-70
2021/07/04 07:15:24;;;;;;;11.80;7.50;;;23.40;99.90;;;;;;5061615;28;20178;-70
2021/07/04 07:17:49;;;;;;;11.38;7.30;;;24.80;99.90;;;;;;5064150;28;20123;-71
2021/07/04 07:20:16;;;;;;;11.93;8.23;;;26.30;99.90;;;;;;5064255;28;20032;-71
2021/07/04 07:22:42;;;;;;;14.32;8.45;;;27.50;99.90;;;;;;5063234;28;20040;-71
2021/07/04 07:25:08;;;;;;;14.50;9.00;;;28.50;99.90;;;;;;5079781;28;20029;-71
2021/07/04 07:27:34;;;;;;;11.77;8.93;;;29.50;99.90;;;;;;5063995;28;20051;-71
2021/07/04 07:30:00;;;;;;;11.38;9.52;;;30.40;99.90;;;;;;5078435;28;20369;-71
2021/07/04 07:32:27;;;;;;;10.73;9.23;;;30.80;99.60;;;;;;5078079;28;20033;-71
2021/07/04 07:34:53;;;;;;;13.38;9.57;;;30.90;98.10;;;;;;5063386;28;20032;-71
2021/07/04 07:37:19;;;;;;;11.02;9.23;;;30.20;96.70;;;;;;5077808;28;20128;-71
2021/07/04 07:39:45;;;;;;;12.40;10.18;;;29.00;98.70;;;;;;5049441;28;20052;-71
2021/07/04 07:42:10;;;;;;;11.48;8.73;;;28.00;98.20;;;;;;5071020;28;20037;-71
2021/07/04 07:44:36;;;;;;;10.48;7.95;;;26.70;99.70;;;;;;5054027;28;20033;-71
2021/07/04 07:47:03;;;;;;;13.25;7.47;;;25.60;99.90;;;;;;5053451;28;20036;-71
2021/07/04 07:49:28;;;;;;;9.68;6.85;;;24.80;99.90;;;;;;5071081;28;20044;-70
2021/07/04 07:51:54;;;;;;;10.85;6.60;;;24.20;99.90;;;;;;5071700;28;20039;-70
2021/07/04 07:54:20;;;;;;;7.63;5.38;;;24.10;99.90;;;;;;5070607;28;20032;-71
2021/07/04 07:56:46;;;;;;;9.02;6.05;;;24.20;99.90;;;;;;5054675;28;20047;-71
2021/07/04 07:59:12;;;;;;;6.88;4.47;;;24.20;99.90;;;;;;5068736;28;20485;-71
2021/07/04 08:01:38;;;;;;;6.72;4.55;;;24.70;99.90;;;;;;5054493;28;20451;-71
2021/07/04 08:04:03;;;;;;;7.85;5.05;;;24.80;99.90;;;;;;5051816;28;20612;-71
2021/07/04 08:06:29;;;;;;;8.85;5.68;;;24.50;99.90;;;;;;5055153;28;20080;-71
2021/07/04 08:08:55;;;;;;;7.93;5.05;;;24.00;99.90;;;;;;5068046;28;20055;-71
2021/07/04 08:11:20;;;;;;;7.55;4.18;;;23.90;99.90;;;;;;5067043;28;20056;-71
2021/07/04 08:13:46;;;;;;;5.55;3.95;;;24.30;99.90;;;;;;5055040;28;20037;-71
2021/07/04 08:16:14;;;;;;;5.00;3.15;;;25.60;99.90;;;;;;5075527;28;20368;-71
2021/07/04 08:18:40;;;;;;;5.32;3.28;;;26.00;99.90;;;;;;5079205;28;20480;-72
2021/07/04 08:21:06;;;;;;;4.65;3.08;;;26.70;99.90;;;;;;5079772;28;20024;-72
2021/07/04 08:23:31;;;;;;;4.07;3.17;;;27.90;99.90;;;;;;5050132;28;20461;-72
2021/07/04 08:25:57;;;;;;;3.80;2.88;;;28.70;99.90;;;;;;5071080;28;20032;-72
2021/07/04 08:28:22;;;;;;;4.25;3.42;;;30.10;97.80;;;;;;5074538;28;20069;-72
2021/07/04 08:30:48;;;;;;;3.75;2.60;;;30.40;95.20;;;;;;5077760;28;20063;-71
2021/07/04 08:33:14;;;;;;;3.58;2.72;;;30.70;95.50;;;;;;5071867;28;20075;-71
2021/07/04 08:35:40;;;;;;;4.75;3.50;;;30.70;94.10;;;;;;5068903;28;20404;-72
2021/07/04 08:38:06;;;;;;;4.20;2.60;;;30.60;92.60;;;;;;5053731;28;20033;-72
2021/07/04 08:40:31;;;;;;;4.05;2.92;;;30.40;92.30;;;;;;5076180;28;20039;-72
2021/07/04 08:42:57;;;;;;;3.40;2.60;;;30.50;91.60;;;;;;5070973;28;20380;-72
2021/07/04 08:45:23;;;;;;;4.35;3.08;;;29.90;92.70;;;;;;5049834;28;20052;-72
2021/07/04 08:47:48;;;;;;;3.58;2.75;;;29.60;94.40;;;;;;5077641;28;20491;-72
2021/07/04 08:50:14;;;;;;;9.45;2.83;;;29.90;93.20;;;;;;5053442;28;20086;-72
2021/07/04 08:52:41;;;;;;;3.83;2.92;;;30.20;90.90;;;;;;5053660;28;20052;-73
2021/07/04 08:55:08;;;;;;;3.85;3.35;;;29.80;91.40;;;;;;5068385;28;20028;-73
2021/07/04 08:57:34;;;;;;;3.75;2.90;;;28.80;91.90;;;;;;5060951;28;20178;-73
2021/07/04 09:00:00;;;;;;;3.72;3.00;;;27.80;94.50;;;;;;5053397;28;20572;-73
2021/07/04 09:02:38;;;;;;;4.50;2.88;;;27.00;96.60;;;;;;5052385;28;20540;-72
2021/07/04 09:05:07;;;;;;;4.15;2.70;;;26.40;95.80;;;;;;5073570;28;20554;-72
2021/07/04 09:07:34;;;;;;;2.10;1.80;;;26.00;97.60;;;;;;5067186;28;20040;-73
2021/07/04 09:10:06;;;;;;;3.38;2.22;;;25.80;99.20;;;;;;5070704;28;20401;-74
2021/07/04 09:12:37;;;;;;;6.90;1.73;;;26.00;99.90;;;;;;5053320;28;20127;-73
2021/07/04 09:15:20;;;;;;;2.28;1.45;;;26.00;97.80;;;;;;5050841;28;20088;-72
2021/07/04 09:17:48;;;;;;;3.05;1.50;;;26.20;97.70;;;;;;5078868;28;20404;-73
2021/07/04 09:20:17;;;;;;;2.47;1.75;;;26.50;98.60;;;;;;5052858;28;20032;-71
2021/07/04 09:22:51;;;;;;;2.80;1.60;;;26.80;97.30;;;;;;5071532;28;20063;-73
2021/07/04 09:25:17;;;;;;;2.67;1.45;;;26.80;96.90;;;;;;5072734;28;20029;-72
2021/07/04 09:28:04;;;;;;;3.60;2.08;;;27.10;95.90;;;;;;5053422;28;20424;-71
2021/07/04 09:30:38;;;;;;;3.65;2.33;;;27.20;95.70;;;;;;5053023;28;20033;-71
2021/07/04 09:33:18;;;;;;;4.35;1.90;;;27.20;97.10;;;;;;5053249;28;20044;-71
2021/07/04 09:35:55;;;;;;;2.25;1.20;;;27.20;96.20;;;;;;5070565;28;20085;-71
2021/07/04 09:38:22;;;;;;;2.28;1.58;;;27.00;96.50;;;;;;5069426;28;20046;-72
2021/07/04 09:40:49;;;;;;;2.78;1.55;;;27.10;96.40;;;;;;5068843;28;20403;-72
2021/07/04 09:43:16;;;;;;;3.38;1.80;;;27.20;97.10;;;;;;5073529;28;20043;-72
2021/07/04 09:45:50;;;;;;;1.73;1.20;;;27.50;95.80;;;;;;5073415;28;20043;-72
2021/07/04 09:48:20;;;;;;;3.30;1.92;;;27.50;95.80;;;;;;5054823;28;20793;-71
2021/07/04 09:50:49;;;;;;;2.10;1.85;;;27.30;94.40;;;;;;5073806;28;20082;-72
2021/07/04 09:53:16;;;;;;;2.63;1.30;;;27.20;96.00;;;;;;5074740;28;20036;-72
2021/07/04 09:55:42;;;;;;;2.20;1.42;;;27.00;96.30;;;;;;5073214;28;20775;-72
2021/07/04 09:58:12;;;;;;;2.00;1.60;;;26.90;95.00;;;;;;5075152;28;20043;-72
2021/07/04 10:00:43;;;;;;;4.10;1.75;;;26.90;96.60;;;;;;5071411;28;20031;-71
2021/07/04 10:03:20;;;;;;;3.65;2.10;;;26.90;94.80;;;;;;5075006;28;20141;-71
2021/07/04 10:05:55;;;;;;;5.13;1.60;;;26.80;96.60;;;;;;5074577;28;20556;-71
2021/07/04 10:08:25;;;;;;;3.13;1.38;;;26.80;96.20;;;;;;5077044;28;20488;-71
2021/07/04 10:10:54;;;;;;;2.88;1.67;;;26.90;96.00;;;;;;5073447;28;20032;-73
2021/07/04 10:13:20;;;;;;;2.63;1.30;;;26.80;95.70;;;;;;5074333;28;20033;-71
2021/07/04 10:15:46;;;;;;;4.07;2.15;;;26.80;96.50;;;;;;5055819;28;20033;-70
2021/07/04 10:18:12;;;;;;;2.13;1.73;;;26.60;95.80;;;;;;5074049;28;20035;-70
2021/07/04 10:20:39;;;;;;;2.88;1.85;;;26.60;97.10;;;;;;5061014;28;20044;-71
2021/07/04 10:23:10;;;;;;;2.22;1.30;;;26.80;96.10;;;;;;5073375;28;20361;-72
2021/07/04 10:25:35;;;;;;;5.93;1.33;;;26.90;95.20;;;;;;5073208;28;20085;-70
2021/07/04 10:28:02;;;;;;;2.20;1.42;;;27.00;96.40;;;;;;5058795;28;20032;-70
2021/07/04 10:30:29;;;;;;;3.40;2.20;;;27.20;97.20;;;;;;5054958;28;20470;-72
2021/07/04 10:33:06;;;;;;;2.47;1.80;;;27.30;94.20;;;;;;5077349;28;20481;-70
2021/07/04 10:35:33;;;;;;;4.93;1.75;;;27.10;95.60;;;;;;5073430;28;20037;-72
2021/07/04 10:38:15;;;;;;;3.35;1.52;;;27.20;94.80;;;;;;5077006;28;20677;-72
2021/07/04 10:40:41;;;;;;;3.25;1.85;;;27.40;94.50;;;;;;5070212;28;20044;-72
2021/07/04 10:43:08;;;;;;;4.32;1.85;;;27.40;94.30;;;;;;5074014;28;20040;-72
2021/07/04 10:45:37;;;;;;;4.00;2.10;;;27.10;93.70;;;;;;5075976;28;20032;-71
2021/07/04 10:48:19;;;;;;;3.40;1.50;;;26.80;95.40;;;;;;5074338;28;20113;-70
2021/07/04 10:51:13;;;;;;;3.85;1.23;;;26.60;95.00;;;;;;5074361;28;20032;-72
2021/07/04 10:53:45;;;;;;;1.40;1.13;;;26.50;95.60;;;;;;5074302;28;20037;-71
2021/07/04 10:56:33;;;;;;;2.00;1.27;;;26.40;95.70;;;;;;5076498;28;20032;-72
2021/07/04 10:59:06;;;;;;;2.60;1.08;;;26.50;96.30;;;;;;5072972;28;20032;-70
2021/07/04 11:01:47;;;;;;;1.25;1.02;;;26.60;97.20;;;;;;5073358;28;20033;-71
2021/07/04 11:04:28;;;;;;;2.15;1.33;;;26.90;95.80;;;;;;5070924;28;20041;-70
2021/07/04 11:06:54;;;;;;;2.20;1.10;;;26.80;94.10;;;;;;5075433;28;20028;-72
2021/07/04 11:09:20;;;;;;;1.70;1.05;;;26.50;95.60;;;;;;5056235;28;20032;-71
2021/07/04 11:11:45;;;;;;;1.92;1.08;;;26.30;96.30;;;;;;5056247;28;20419;-72
2021/07/04 11:14:11;;;;;;;3.65;1.35;;;26.00;96.40;;;;;;5071090;28;20040;-71
2021/07/04 11:16:37;;;;;;;5.10;1.90;;;26.00;97.80;;;;;;5076471;28;20037;-73
2021/07/04 11:19:08;;;;;;;3.13;1.63;;;25.90;97.90;;;;;;5075118;28;20040;-73
2021/07/04 11:21:48;;;;;;;3.55;1.88;;;25.80;98.20;;;;;;5074201;28;20732;-71
2021/07/04 11:24:22;;;;;;;2.85;1.35;;;25.80;98.40;;;;;;5048024;28;20136;-71
2021/07/04 11:27:15;;;;;;;2.60;1.50;;;25.80;98.60;;;;;;5070865;28;20041;-71
2021/07/04 11:30:21;;;;;;;2.95;1.42;;;25.80;99.00;;;;;;5055087;28;20054;-72
2021/07/04 11:32:47;;;;;;;3.25;1.40;;;25.70;98.90;;;;;;5076278;28;20707;-71
2021/07/04 11:35:13;;;;;;;3.53;1.75;;;25.50;99.30;;;;;;5054663;28;20036;-71
2021/07/04 11:37:40;;;;;;;3.40;1.40;;;25.40;99.90;;;;;;5070614;28;20040;-72
2021/07/04 11:40:06;;;;;;;2.15;1.10;;;25.40;99.90;;;;;;5070062;28;20589;-73
2021/07/04 11:42:32;;;;;;;1.05;0.80;;;25.50;99.90;;;;;;5068540;28;20041;-73
2021/07/04 11:44:58;;;;;;;1.00;0.45;;;25.60;98.50;;;;;;5054004;28;20450;-72
2021/07/04 11:47:23;;;;;;;2.00;1.02;;;25.70;98.90;;;;;;5070947;28;20552;-73
2021/07/04 11:49:49;;;;;;;2.08;0.95;;;25.80;99.90;;;;;;5070963;28;20032;-71
2021/07/04 11:52:19;;;;;;;1.20;0.70;;;25.90;98.00;;;;;;5053439;28;20032;-73
2021/07/04 11:54:45;;;;;;;2.75;0.85;;;26.10;97.30;;;;;;5063041;28;21987;-72
2021/07/04 11:57:31;;;;;;;2.13;0.70;;;26.20;96.70;;;;;;5072538;28;20036;-72
2021/07/04 12:00:08;;;;;;;1.25;0.70;;;26.20;98.40;;;;;;5071717;28;20036;-72
2021/07/04 12:02:48;;;;;;;1.42;0.43;;;26.40;96.90;;;;;;5051814;28;20037;-72
2021/07/04 12:05:14;;;;;;;0.82;0.50;;;26.60;95.80;;;;;;5053301;28;20028;-72
2021/07/04 12:07:40;;;;;;;0.80;0.40;;;26.70;94.20;;;;;;5070335;28;20707;-73
2021/07/04 12:10:06;;;;;;;0.65;0.32;;;26.60;94.00;;;;;;5069123;28;20127;-72
2021/07/04 12:12:35;;;;;;;0.50;0.40;;;26.50;93.00;;;;;;5058421;28;20071;-73
2021/07/04 12:15:05;;;;;;;0.68;0.25;;;26.50;93.60;;;;;;5054727;28;20040;-72
2021/07/04 12:17:31;;;;;;;2.20;0.47;;;26.50;93.70;;;;;;5053402;28;20047;-71
2021/07/04 12:20:11;;;;;;;0.93;0.50;;;26.40;94.30;;;;;;5079284;28;20040;-71
2021/07/04 12:22:48;;;;;;;2.15;0.13;;;26.50;94.00;;;;;;5048258;28;20055;-72
2021/07/04 12:25:18;;;;;;;1.00;0.57;;;26.60;93.20;;;;;;5067133;28;20032;-70
2021/07/04 12:27:43;;;;;;;;;;;26.60;92.40;;;;;;5070043;28;20492;-71
2021/07/04 12:30:13;;;;;;;1.00;0.22;;;26.50;92.40;;;;;;5070316;28;20015;-71
2021/07/04 12:32:43;;;;;;;;;;;26.60;94.30;;;;;;5045861;28;20132;-72
2021/07/04 12:35:19;;;;;;;0.35;0.30;;;26.80;93.90;;;;;;5049114;28;19916;-71
2021/07/04 12:37:46;;;;;;;0.60;0.30;;;26.80;93.30;;;;;;5043447;28;20382;-72
2021/07/04 12:40:21;;;;;;;0.43;0.30;;;26.60;94.30;;;;;;5050862;28;20044;-71